sensor_id;sensor_type;location;lat;lon;timestamp;P1;durP1;ratioP1;P2;durP2;ratioP2
28455;SDS011;15682;56.742;38.866;2022-12-20T00:00:23;12.0;;;5.5;;
28455;SDS011;15682;56.742;38.866;2022-12-20T00:02:23;14.1;;;5.6;;
28455;SDS011;15682;56.742;38.866;2022-12-20T00:04:23;14.4;;;6.0;;
28455;SDS011;15682;56.742;38.866;2022-12-20T00:06:24;10.8;;;5.4;;
28455;SDS011;15682;56.742;38.866;2022-12-20T00:08:23;12.5;;;5.6;;
28455;SDS011;15682;56.742;38.866;2022-12-20T00:10:23;13.4;;;5.5;;
28455;SDS011;15682;56.742;38.866;2022-12-20T00:12:23;13.3;;;5.6;;
28455;SDS011;15682;56.742;38.866;2022-12-20T00:14:22;13.5;;;5.8;;
28455;SDS011;15682;56.742;38.866;2022-12-20T00:16:23;14.5;;;5.9;;
28455;SDS011;15682;56.742;38.866;2022-12-20T00:18:22;14.7;;;6.0;;
28455;SDS011;15682;56.742;38.866;2022-12-20T00:20:22;15.3;;;6.1;;
28455;SDS011;15682;56.742;38.866;2022-12-20T00:22:22;14.3;;;5.9;;
28455;SDS011;15682;56.742;38.866;2022-12-20T00:24:22;13.5;;;5.4;;
28455;SDS011;15682;56.742;38.866;2022-12-20T00:26:22;15.0;;;6.3;;
28455;SDS011;15682;56.742;38.866;2022-12-20T00:28:22;13.6;;;6.2;;
28455;SDS011;15682;56.742;38.866;2022-12-20T00:30:22;13.4;;;6.2;;
28455;SDS011;15682;56.742;38.866;2022-12-20T00:32:21;14.8;;;6.4;;
28455;SDS011;15682;56.742;38.866;2022-12-20T00:34:21;19.7;;;6.8;;
28455;SDS011;15682;56.742;38.866;2022-12-20T00:36:22;11.8;;;5.9;;
28455;SDS011;15682;56.742;38.866;2022-12-20T00:38:21;16.2;;;6.7;;
28455;SDS011;15682;56.742;38.866;2022-12-20T00:40:21;14.2;;;6.3;;
28455;SDS011;15682;56.742;38.866;2022-12-20T00:42:21;15.5;;;6.9;;
28455;SDS011;15682;56.742;38.866;2022-12-20T00:44:21;14.6;;;6.8;;
28455;SDS011;15682;56.742;38.866;2022-12-20T00:46:21;15.3;;;6.4;;
28455;SDS011;15682;56.742;38.866;2022-12-20T00:48:21;14.0;;;6.2;;
28455;SDS011;15682;56.742;38.866;2022-12-20T00:50:20;12.8;;;6.1;;
28455;SDS011;15682;56.742;38.866;2022-12-20T00:52:20;13.2;;;6.4;;
28455;SDS011;15682;56.742;38.866;2022-12-20T00:54:20;16.8;;;6.7;;
28455;SDS011;15682;56.742;38.866;2022-12-20T00:56:20;13.8;;;6.4;;
28455;SDS011;15682;56.742;38.866;2022-12-20T00:58:20;15.1;;;6.4;;
28455;SDS011;15682;56.742;38.866;2022-12-20T01:00:20;14.0;;;6.2;;
28455;SDS011;15682;56.742;38.866;2022-12-20T01:02:20;16.5;;;6.6;;
28455;SDS011;15682;56.742;38.866;2022-12-20T01:04:20;18.5;;;6.8;;
28455;SDS011;15682;56.742;38.866;2022-12-20T01:06:20;15.0;;;6.5;;
28455;SDS011;15682;56.742;38.866;2022-12-20T01:08:20;16.7;;;6.6;;
28455;SDS011;15682;56.742;38.866;2022-12-20T01:10:19;15.4;;;6.5;;
28455;SDS011;15682;56.742;38.866;2022-12-20T01:12:19;15.8;;;6.8;;
28455;SDS011;15682;56.742;38.866;2022-12-20T01:14:19;15.1;;;7.0;;
28455;SDS011;15682;56.742;38.866;2022-12-20T01:16:20;15.6;;;6.6;;
28455;SDS011;15682;56.742;38.866;2022-12-20T01:18:19;19.5;;;6.9;;
28455;SDS011;15682;56.742;38.866;2022-12-20T01:20:19;15.6;;;6.5;;
28455;SDS011;15682;56.742;38.866;2022-12-20T01:22:19;17.0;;;7.0;;
28455;SDS011;15682;56.742;38.866;2022-12-20T01:24:19;16.0;;;6.9;;
28455;SDS011;15682;56.742;38.866;2022-12-20T01:26:19;17.6;;;6.5;;
28455;SDS011;15682;56.742;38.866;2022-12-20T01:28:18;14.0;;;6.7;;
28455;SDS011;15682;56.742;38.866;2022-12-20T01:30:18;16.3;;;6.8;;
28455;SDS011;15682;56.742;38.866;2022-12-20T01:32:18;16.6;;;6.6;;
28455;SDS011;15682;56.742;38.866;2022-12-20T01:34:18;14.7;;;6.4;;
28455;SDS011;15682;56.742;38.866;2022-12-20T01:36:19;15.4;;;6.7;;
28455;SDS011;15682;56.742;38.866;2022-12-20T01:38:18;15.2;;;7.1;;
28455;SDS011;15682;56.742;38.866;2022-12-20T01:40:18;17.2;;;7.2;;
28455;SDS011;15682;56.742;38.866;2022-12-20T01:42:17;14.3;;;6.8;;
28455;SDS011;15682;56.742;38.866;2022-12-20T01:46:19;14.8;;;6.8;;
28455;SDS011;15682;56.742;38.866;2022-12-20T01:48:19;14.1;;;6.7;;
28455;SDS011;15682;56.742;38.866;2022-12-20T01:50:17;15.0;;;6.3;;
28455;SDS011;15682;56.742;38.866;2022-12-20T01:52:18;13.6;;;6.3;;
28455;SDS011;15682;56.742;38.866;2022-12-20T01:54:18;14.3;;;6.4;;
28455;SDS011;15682;56.742;38.866;2022-12-20T01:56:17;14.1;;;6.3;;
28455;SDS011;15682;56.742;38.866;2022-12-20T01:58:17;13.0;;;6.3;;
28455;SDS011;15682;56.742;38.866;2022-12-20T02:00:17;15.3;;;6.2;;
28455;SDS011;15682;56.742;38.866;2022-12-20T02:02:16;15.3;;;6.5;;
28455;SDS011;15682;56.742;38.866;2022-12-20T02:04:16;13.6;;;5.8;;
28455;SDS011;15682;56.742;38.866;2022-12-20T02:06:17;11.8;;;6.1;;
28455;SDS011;15682;56.742;38.866;2022-12-20T02:08:17;13.9;;;6.0;;
28455;SDS011;15682;56.742;38.866;2022-12-20T02:10:16;14.4;;;6.4;;
28455;SDS011;15682;56.742;38.866;2022-12-20T02:12:16;12.5;;;6.6;;
28455;SDS011;15682;56.742;38.866;2022-12-20T02:14:20;14.8;;;6.0;;
28455;SDS011;15682;56.742;38.866;2022-12-20T02:16:21;15.1;;;6.6;;
28455;SDS011;15682;56.742;38.866;2022-12-20T02:18:18;14.4;;;6.2;;
28455;SDS011;15682;56.742;38.866;2022-12-20T02:20:25;13.3;;;6.1;;
28455;SDS011;15682;56.742;38.866;2022-12-20T02:22:19;15.6;;;6.7;;
28455;SDS011;15682;56.742;38.866;2022-12-20T02:24:20;12.9;;;6.0;;
28455;SDS011;15682;56.742;38.866;2022-12-20T02:26:21;13.9;;;6.3;;
28455;SDS011;15682;56.742;38.866;2022-12-20T02:28:20;12.6;;;5.9;;
28455;SDS011;15682;56.742;38.866;2022-12-20T02:30:15;12.9;;;5.6;;
28455;SDS011;15682;56.742;38.866;2022-12-20T02:32:16;15.2;;;6.4;;
28455;SDS011;15682;56.742;38.866;2022-12-20T02:34:15;14.0;;;6.3;;
28455;SDS011;15682;56.742;38.866;2022-12-20T02:36:15;14.7;;;6.4;;
28455;SDS011;15682;56.742;38.866;2022-12-20T02:38:24;12.4;;;5.9;;
28455;SDS011;15682;56.742;38.866;2022-12-20T02:40:15;14.3;;;6.0;;
28455;SDS011;15682;56.742;38.866;2022-12-20T02:42:15;15.0;;;6.6;;
28455;SDS011;15682;56.742;38.866;2022-12-20T02:44:15;14.9;;;6.1;;
28455;SDS011;15682;56.742;38.866;2022-12-20T02:46:14;13.4;;;6.0;;
28455;SDS011;15682;56.742;38.866;2022-12-20T02:48:14;15.8;;;6.0;;
28455;SDS011;15682;56.742;38.866;2022-12-20T02:50:16;14.9;;;6.1;;
28455;SDS011;15682;56.742;38.866;2022-12-20T02:52:14;13.8;;;5.9;;
28455;SDS011;15682;56.742;38.866;2022-12-20T02:54:14;14.1;;;6.0;;
28455;SDS011;15682;56.742;38.866;2022-12-20T02:56:15;13.5;;;6.1;;
28455;SDS011;15682;56.742;38.866;2022-12-20T02:58:16;13.3;;;6.3;;
28455;SDS011;15682;56.742;38.866;2022-12-20T03:00:14;14.3;;;6.0;;
28455;SDS011;15682;56.742;38.866;2022-12-20T03:02:13;12.9;;;6.0;;
28455;SDS011;15682;56.742;38.866;2022-12-20T03:04:13;13.3;;;5.7;;
28455;SDS011;15682;56.742;38.866;2022-12-20T03:06:13;14.6;;;6.3;;
28455;SDS011;15682;56.742;38.866;2022-12-20T03:08:13;13.9;;;6.2;;
28455;SDS011;15682;56.742;38.866;2022-12-20T03:10:13;13.2;;;6.2;;
28455;SDS011;15682;56.742;38.866;2022-12-20T03:12:13;14.6;;;6.4;;
28455;SDS011;15682;56.742;38.866;2022-12-20T03:14:13;13.0;;;6.0;;
28455;SDS011;15682;56.742;38.866;2022-12-20T03:16:13;12.2;;;5.9;;
28455;SDS011;15682;56.742;38.866;2022-12-20T03:18:12;13.3;;;6.2;;
28455;SDS011;15682;56.742;38.866;2022-12-20T03:20:12;13.9;;;5.9;;
28455;SDS011;15682;56.742;38.866;2022-12-20T03:22:12;15.0;;;6.3;;
28455;SDS011;15682;56.742;38.866;2022-12-20T03:24:13;15.4;;;5.9;;
28455;SDS011;15682;56.742;38.866;2022-12-20T03:26:12;11.4;;;5.9;;
28455;SDS011;15682;56.742;38.866;2022-12-20T03:28:12;13.7;;;5.9;;
28455;SDS011;15682;56.742;38.866;2022-12-20T03:30:12;11.9;;;5.9;;
28455;SDS011;15682;56.742;38.866;2022-12-20T03:32:12;12.8;;;5.7;;
28455;SDS011;15682;56.742;38.866;2022-12-20T03:34:12;13.8;;;6.4;;
28455;SDS011;15682;56.742;38.866;2022-12-20T03:36:11;13.0;;;6.2;;
28455;SDS011;15682;56.742;38.866;2022-12-20T03:38:11;14.1;;;6.5;;
28455;SDS011;15682;56.742;38.866;2022-12-20T03:40:12;12.7;;;6.2;;
28455;SDS011;15682;56.742;38.866;2022-12-20T03:42:11;13.3;;;6.5;;
28455;SDS011;15682;56.742;38.866;2022-12-20T03:44:11;15.8;;;6.8;;
28455;SDS011;15682;56.742;38.866;2022-12-20T03:46:11;14.3;;;6.8;;
28455;SDS011;15682;56.742;38.866;2022-12-20T03:48:11;15.8;;;7.1;;
28455;SDS011;15682;56.742;38.866;2022-12-20T03:50:11;13.4;;;6.7;;
28455;SDS011;15682;56.742;38.866;2022-12-20T03:52:11;14.8;;;6.3;;
28455;SDS011;15682;56.742;38.866;2022-12-20T03:54:10;14.8;;;7.1;;
28455;SDS011;15682;56.742;38.866;2022-12-20T03:56:10;15.5;;;7.1;;
28455;SDS011;15682;56.742;38.866;2022-12-20T03:58:10;15.5;;;6.8;;
28455;SDS011;15682;56.742;38.866;2022-12-20T04:00:10;15.5;;;6.7;;
28455;SDS011;15682;56.742;38.866;2022-12-20T04:02:10;14.6;;;6.7;;
28455;SDS011;15682;56.742;38.866;2022-12-20T04:04:11;14.6;;;6.7;;
28455;SDS011;15682;56.742;38.866;2022-12-20T04:06:10;13.3;;;6.8;;
28455;SDS011;15682;56.742;38.866;2022-12-20T04:08:10;13.3;;;6.5;;
28455;SDS011;15682;56.742;38.866;2022-12-20T04:10:10;16.2;;;6.5;;
28455;SDS011;15682;56.742;38.866;2022-12-20T04:12:10;14.0;;;6.3;;
28455;SDS011;15682;56.742;38.866;2022-12-20T04:14:09;15.1;;;6.9;;
28455;SDS011;15682;56.742;38.866;2022-12-20T04:16:09;13.0;;;6.6;;
28455;SDS011;15682;56.742;38.866;2022-12-20T04:18:09;16.5;;;6.6;;
28455;SDS011;15682;56.742;38.866;2022-12-20T04:20:12;16.7;;;7.2;;
28455;SDS011;15682;56.742;38.866;2022-12-20T04:22:09;15.3;;;7.0;;
28455;SDS011;15682;56.742;38.866;2022-12-20T04:24:09;15.9;;;7.4;;
28455;SDS011;15682;56.742;38.866;2022-12-20T04:26:09;18.8;;;7.1;;
28455;SDS011;15682;56.742;38.866;2022-12-20T04:28:09;13.7;;;7.1;;
28455;SDS011;15682;56.742;38.866;2022-12-20T04:30:09;18.2;;;7.9;;
28455;SDS011;15682;56.742;38.866;2022-12-20T04:32:08;17.6;;;8.5;;
28455;SDS011;15682;56.742;38.866;2022-12-20T04:34:08;16.9;;;8.0;;
28455;SDS011;15682;56.742;38.866;2022-12-20T04:36:08;16.3;;;7.7;;
28455;SDS011;15682;56.742;38.866;2022-12-20T04:38:08;15.7;;;8.0;;
28455;SDS011;15682;56.742;38.866;2022-12-20T04:40:08;15.0;;;7.4;;
28455;SDS011;15682;56.742;38.866;2022-12-20T04:42:08;14.3;;;6.9;;
28455;SDS011;15682;56.742;38.866;2022-12-20T04:44:08;14.3;;;6.9;;
28455;SDS011;15682;56.742;38.866;2022-12-20T04:46:08;18.3;;;7.7;;
28455;SDS011;15682;56.742;38.866;2022-12-20T04:48:07;15.8;;;7.4;;
28455;SDS011;15682;56.742;38.866;2022-12-20T04:50:08;14.0;;;6.7;;
28455;SDS011;15682;56.742;38.866;2022-12-20T04:52:07;11.7;;;6.4;;
28455;SDS011;15682;56.742;38.866;2022-12-20T04:54:07;14.6;;;6.5;;
28455;SDS011;15682;56.742;38.866;2022-12-20T04:56:07;13.6;;;6.8;;
28455;SDS011;15682;56.742;38.866;2022-12-20T04:58:07;12.9;;;6.7;;
28455;SDS011;15682;56.742;38.866;2022-12-20T05:00:07;14.9;;;7.2;;
28455;SDS011;15682;56.742;38.866;2022-12-20T05:02:07;13.3;;;7.1;;
28455;SDS011;15682;56.742;38.866;2022-12-20T05:04:07;14.1;;;6.9;;
28455;SDS011;15682;56.742;38.866;2022-12-20T05:06:07;12.2;;;6.4;;
28455;SDS011;15682;56.742;38.866;2022-12-20T05:08:06;15.7;;;7.1;;
28455;SDS011;15682;56.742;38.866;2022-12-20T05:10:07;15.3;;;7.1;;
28455;SDS011;15682;56.742;38.866;2022-12-20T05:12:06;16.5;;;6.8;;
28455;SDS011;15682;56.742;38.866;2022-12-20T05:14:06;13.6;;;6.5;;
28455;SDS011;15682;56.742;38.866;2022-12-20T05:16:06;13.3;;;6.9;;
28455;SDS011;15682;56.742;38.866;2022-12-20T05:18:06;14.4;;;7.1;;
28455;SDS011;15682;56.742;38.866;2022-12-20T05:20:06;11.5;;;6.5;;
28455;SDS011;15682;56.742;38.866;2022-12-20T05:22:05;13.0;;;7.1;;
28455;SDS011;15682;56.742;38.866;2022-12-20T05:24:06;14.4;;;7.0;;
28455;SDS011;15682;56.742;38.866;2022-12-20T05:26:07;18.6;;;7.0;;
28455;SDS011;15682;56.742;38.866;2022-12-20T05:28:05;11.8;;;6.2;;
28455;SDS011;15682;56.742;38.866;2022-12-20T05:30:05;10.6;;;6.2;;
28455;SDS011;15682;56.742;38.866;2022-12-20T05:32:05;11.0;;;6.2;;
28455;SDS011;15682;56.742;38.866;2022-12-20T05:34:05;13.4;;;6.5;;
28455;SDS011;15682;56.742;38.866;2022-12-20T05:36:05;12.2;;;6.3;;
28455;SDS011;15682;56.742;38.866;2022-12-20T05:38:05;12.9;;;6.5;;
28455;SDS011;15682;56.742;38.866;2022-12-20T05:40:05;12.1;;;6.3;;
28455;SDS011;15682;56.742;38.866;2022-12-20T05:42:04;13.8;;;6.2;;
28455;SDS011;15682;56.742;38.866;2022-12-20T05:44:05;32.2;;;7.3;;
28455;SDS011;15682;56.742;38.866;2022-12-20T05:46:04;11.2;;;6.0;;
28455;SDS011;15682;56.742;38.866;2022-12-20T05:48:04;28.9;;;8.5;;
28455;SDS011;15682;56.742;38.866;2022-12-20T05:50:04;16.1;;;7.5;;
28455;SDS011;15682;56.742;38.866;2022-12-20T05:52:04;14.7;;;6.2;;
28455;SDS011;15682;56.742;38.866;2022-12-20T05:54:04;11.7;;;6.0;;
28455;SDS011;15682;56.742;38.866;2022-12-20T05:56:04;13.5;;;6.5;;
28455;SDS011;15682;56.742;38.866;2022-12-20T05:58:04;12.9;;;6.0;;
28455;SDS011;15682;56.742;38.866;2022-12-20T06:00:04;18.0;;;7.4;;
28455;SDS011;15682;56.742;38.866;2022-12-20T06:02:03;12.6;;;6.0;;
28455;SDS011;15682;56.742;38.866;2022-12-20T06:04:03;13.9;;;6.6;;
28455;SDS011;15682;56.742;38.866;2022-12-20T06:06:03;28.2;;;8.0;;
28455;SDS011;15682;56.742;38.866;2022-12-20T06:08:04;25.7;;;7.7;;
28455;SDS011;15682;56.742;38.866;2022-12-20T06:10:03;17.7;;;6.9;;
28455;SDS011;15682;56.742;38.866;2022-12-20T06:12:03;13.5;;;6.8;;
28455;SDS011;15682;56.742;38.866;2022-12-20T06:14:02;15.0;;;6.0;;
28455;SDS011;15682;56.742;38.866;2022-12-20T06:16:02;15.9;;;6.4;;
28455;SDS011;15682;56.742;38.866;2022-12-20T06:18:02;19.9;;;6.8;;
28455;SDS011;15682;56.742;38.866;2022-12-20T06:20:02;10.6;;;6.1;;
28455;SDS011;15682;56.742;38.866;2022-12-20T06:22:02;11.8;;;5.5;;
28455;SDS011;15682;56.742;38.866;2022-12-20T06:24:02;12.4;;;5.9;;
28455;SDS011;15682;56.742;38.866;2022-12-20T06:26:01;14.2;;;5.8;;
28455;SDS011;15682;56.742;38.866;2022-12-20T06:28:01;19.3;;;6.5;;
28455;SDS011;15682;56.742;38.866;2022-12-20T06:30:01;13.1;;;6.5;;
28455;SDS011;15682;56.742;38.866;2022-12-20T06:32:01;12.6;;;5.9;;
28455;SDS011;15682;56.742;38.866;2022-12-20T06:34:01;13.3;;;6.3;;
28455;SDS011;15682;56.742;38.866;2022-12-20T06:36:01;10.9;;;5.5;;
28455;SDS011;15682;56.742;38.866;2022-12-20T06:38:01;13.6;;;5.9;;
28455;SDS011;15682;56.742;38.866;2022-12-20T06:40:00;26.1;;;7.5;;
28455;SDS011;15682;56.742;38.866;2022-12-20T06:42:00;12.3;;;5.9;;
28455;SDS011;15682;56.742;38.866;2022-12-20T06:44:00;13.4;;;6.6;;
28455;SDS011;15682;56.742;38.866;2022-12-20T06:46:00;12.6;;;5.8;;
28455;SDS011;15682;56.742;38.866;2022-12-20T06:48:00;16.4;;;7.0;;
28455;SDS011;15682;56.742;38.866;2022-12-20T06:50:00;11.8;;;5.8;;
28455;SDS011;15682;56.742;38.866;2022-12-20T06:52:00;11.7;;;5.5;;
28455;SDS011;15682;56.742;38.866;2022-12-20T06:53:59;13.9;;;6.0;;
28455;SDS011;15682;56.742;38.866;2022-12-20T06:55:59;15.5;;;6.1;;
28455;SDS011;15682;56.742;38.866;2022-12-20T06:57:59;11.5;;;5.6;;
28455;SDS011;15682;56.742;38.866;2022-12-20T06:59:59;13.9;;;6.0;;
28455;SDS011;15682;56.742;38.866;2022-12-20T07:01:59;11.4;;;5.7;;
28455;SDS011;15682;56.742;38.866;2022-12-20T07:03:59;12.1;;;6.1;;
28455;SDS011;15682;56.742;38.866;2022-12-20T07:05:59;12.7;;;7.5;;
28455;SDS011;15682;56.742;38.866;2022-12-20T07:07:58;14.4;;;7.6;;
28455;SDS011;15682;56.742;38.866;2022-12-20T07:09:58;15.8;;;8.0;;
28455;SDS011;15682;56.742;38.866;2022-12-20T07:11:58;15.2;;;7.7;;
28455;SDS011;15682;56.742;38.866;2022-12-20T07:13:58;14.7;;;8.7;;
28455;SDS011;15682;56.742;38.866;2022-12-20T07:15:58;16.8;;;10.8;;
28455;SDS011;15682;56.742;38.866;2022-12-20T07:17:58;17.0;;;9.5;;
28455;SDS011;15682;56.742;38.866;2022-12-20T07:19:58;15.0;;;9.4;;
28455;SDS011;15682;56.742;38.866;2022-12-20T07:21:58;13.1;;;8.4;;
28455;SDS011;15682;56.742;38.866;2022-12-20T07:23:57;15.1;;;8.3;;
28455;SDS011;15682;56.742;38.866;2022-12-20T07:25:58;12.0;;;7.2;;
28455;SDS011;15682;56.742;38.866;2022-12-20T07:27:58;12.9;;;6.9;;
28455;SDS011;15682;56.742;38.866;2022-12-20T07:29:57;12.1;;;6.6;;
28455;SDS011;15682;56.742;38.866;2022-12-20T07:31:57;13.7;;;6.2;;
28455;SDS011;15682;56.742;38.866;2022-12-20T07:33:57;12.3;;;6.1;;
28455;SDS011;15682;56.742;38.866;2022-12-20T07:35:59;14.2;;;6.3;;
28455;SDS011;15682;56.742;38.866;2022-12-20T07:37:56;12.4;;;5.9;;
28455;SDS011;15682;56.742;38.866;2022-12-20T07:39:56;12.0;;;5.9;;
28455;SDS011;15682;56.742;38.866;2022-12-20T07:41:56;13.6;;;6.7;;
28455;SDS011;15682;56.742;38.866;2022-12-20T07:43:56;25.6;;;7.8;;
28455;SDS011;15682;56.742;38.866;2022-12-20T07:45:56;13.4;;;6.6;;
28455;SDS011;15682;56.742;38.866;2022-12-20T07:47:56;14.4;;;6.3;;
28455;SDS011;15682;56.742;38.866;2022-12-20T07:49:56;11.7;;;6.2;;
28455;SDS011;15682;56.742;38.866;2022-12-20T07:51:56;14.2;;;6.8;;
28455;SDS011;15682;56.742;38.866;2022-12-20T07:53:57;13.2;;;6.3;;
28455;SDS011;15682;56.742;38.866;2022-12-20T07:55:55;15.3;;;6.5;;
28455;SDS011;15682;56.742;38.866;2022-12-20T07:57:56;12.3;;;6.7;;
28455;SDS011;15682;56.742;38.866;2022-12-20T07:59:55;11.6;;;6.4;;
28455;SDS011;15682;56.742;38.866;2022-12-20T08:01:55;17.1;;;6.9;;
28455;SDS011;15682;56.742;38.866;2022-12-20T08:03:56;13.1;;;6.6;;
28455;SDS011;15682;56.742;38.866;2022-12-20T08:05:55;17.1;;;7.9;;
28455;SDS011;15682;56.742;38.866;2022-12-20T08:07:55;22.1;;;8.2;;
28455;SDS011;15682;56.742;38.866;2022-12-20T08:09:54;13.6;;;6.5;;
28455;SDS011;15682;56.742;38.866;2022-12-20T08:11:54;13.7;;;6.8;;
28455;SDS011;15682;56.742;38.866;2022-12-20T08:13:54;15.1;;;7.3;;
28455;SDS011;15682;56.742;38.866;2022-12-20T08:15:54;13.4;;;6.5;;
28455;SDS011;15682;56.742;38.866;2022-12-20T08:17:54;18.7;;;6.8;;
28455;SDS011;15682;56.742;38.866;2022-12-20T08:19:54;17.5;;;6.5;;
28455;SDS011;15682;56.742;38.866;2022-12-20T08:21:53;16.5;;;7.0;;
28455;SDS011;15682;56.742;38.866;2022-12-20T08:23:53;13.6;;;6.5;;
28455;SDS011;15682;56.742;38.866;2022-12-20T08:25:53;14.5;;;7.0;;
28455;SDS011;15682;56.742;38.866;2022-12-20T08:27:53;15.5;;;6.6;;
28455;SDS011;15682;56.742;38.866;2022-12-20T08:29:53;13.1;;;7.0;;
28455;SDS011;15682;56.742;38.866;2022-12-20T08:31:53;15.1;;;6.8;;
28455;SDS011;15682;56.742;38.866;2022-12-20T08:33:53;13.3;;;6.9;;
28455;SDS011;15682;56.742;38.866;2022-12-20T08:35:55;13.4;;;6.7;;
28455;SDS011;15682;56.742;38.866;2022-12-20T08:37:52;15.6;;;7.1;;
28455;SDS011;15682;56.742;38.866;2022-12-20T08:39:52;13.1;;;6.7;;
28455;SDS011;15682;56.742;38.866;2022-12-20T08:41:52;14.2;;;7.1;;
28455;SDS011;15682;56.742;38.866;2022-12-20T08:43:52;13.5;;;6.7;;
28455;SDS011;15682;56.742;38.866;2022-12-20T08:45:52;14.6;;;7.5;;
28455;SDS011;15682;56.742;38.866;2022-12-20T08:47:52;14.4;;;6.6;;
28455;SDS011;15682;56.742;38.866;2022-12-20T08:49:52;15.4;;;7.1;;
28455;SDS011;15682;56.742;38.866;2022-12-20T08:51:53;15.3;;;7.0;;
28455;SDS011;15682;56.742;38.866;2022-12-20T08:53:51;18.8;;;7.4;;
28455;SDS011;15682;56.742;38.866;2022-12-20T08:55:51;12.7;;;6.7;;
28455;SDS011;15682;56.742;38.866;2022-12-20T08:57:51;15.4;;;7.4;;
28455;SDS011;15682;56.742;38.866;2022-12-20T08:59:51;17.0;;;7.1;;
28455;SDS011;15682;56.742;38.866;2022-12-20T09:01:51;19.3;;;7.5;;
28455;SDS011;15682;56.742;38.866;2022-12-20T09:03:51;14.2;;;7.0;;
28455;SDS011;15682;56.742;38.866;2022-12-20T09:05:51;17.9;;;7.8;;
28455;SDS011;15682;56.742;38.866;2022-12-20T09:07:50;25.2;;;7.7;;
28455;SDS011;15682;56.742;38.866;2022-12-20T09:09:50;14.9;;;7.2;;
28455;SDS011;15682;56.742;38.866;2022-12-20T09:11:50;14.6;;;7.3;;
28455;SDS011;15682;56.742;38.866;2022-12-20T09:13:51;17.7;;;8.0;;
28455;SDS011;15682;56.742;38.866;2022-12-20T09:15:50;17.6;;;7.6;;
28455;SDS011;15682;56.742;38.866;2022-12-20T09:17:50;16.5;;;7.2;;
28455;SDS011;15682;56.742;38.866;2022-12-20T09:19:50;15.2;;;7.6;;
28455;SDS011;15682;56.742;38.866;2022-12-20T09:21:50;15.3;;;7.0;;
28455;SDS011;15682;56.742;38.866;2022-12-20T09:23:50;16.5;;;7.3;;
28455;SDS011;15682;56.742;38.866;2022-12-20T09:25:50;14.6;;;7.3;;
28455;SDS011;15682;56.742;38.866;2022-12-20T09:27:49;16.9;;;7.9;;
28455;SDS011;15682;56.742;38.866;2022-12-20T09:29:49;13.9;;;6.9;;
28455;SDS011;15682;56.742;38.866;2022-12-20T09:31:49;13.7;;;7.1;;
28455;SDS011;15682;56.742;38.866;2022-12-20T09:33:51;19.7;;;8.2;;
28455;SDS011;15682;56.742;38.866;2022-12-20T09:35:49;17.5;;;7.9;;
28455;SDS011;15682;56.742;38.866;2022-12-20T09:37:49;15.0;;;7.3;;
28455;SDS011;15682;56.742;38.866;2022-12-20T09:39:48;17.7;;;7.9;;
28455;SDS011;15682;56.742;38.866;2022-12-20T09:41:48;19.4;;;7.8;;
28455;SDS011;15682;56.742;38.866;2022-12-20T09:43:48;17.1;;;7.9;;
28455;SDS011;15682;56.742;38.866;2022-12-20T09:45:50;16.3;;;7.8;;
28455;SDS011;15682;56.742;38.866;2022-12-20T09:47:48;17.3;;;7.6;;
28455;SDS011;15682;56.742;38.866;2022-12-20T09:49:48;20.5;;;8.2;;
28455;SDS011;15682;56.742;38.866;2022-12-20T09:51:53;15.8;;;7.9;;
28455;SDS011;15682;56.742;38.866;2022-12-20T09:53:50;16.4;;;8.1;;
28455;SDS011;15682;56.742;38.866;2022-12-20T09:55:49;14.4;;;7.5;;
28455;SDS011;15682;56.742;38.866;2022-12-20T09:57:51;16.7;;;8.1;;
28455;SDS011;15682;56.742;38.866;2022-12-20T09:59:47;16.9;;;7.8;;
28455;SDS011;15682;56.742;38.866;2022-12-20T10:01:48;14.2;;;7.4;;
28455;SDS011;15682;56.742;38.866;2022-12-20T10:03:47;14.4;;;7.4;;
28455;SDS011;15682;56.742;38.866;2022-12-20T10:05:49;13.6;;;6.8;;
28455;SDS011;15682;56.742;38.866;2022-12-20T10:07:49;17.4;;;8.4;;
28455;SDS011;15682;56.742;38.866;2022-12-20T10:09:52;14.8;;;7.5;;
28455;SDS011;15682;56.742;38.866;2022-12-20T10:11:49;16.8;;;7.7;;
28455;SDS011;15682;56.742;38.866;2022-12-20T10:13:50;19.2;;;8.2;;
28455;SDS011;15682;56.742;38.866;2022-12-20T10:15:48;18.2;;;8.2;;
28455;SDS011;15682;56.742;38.866;2022-12-20T10:17:51;18.7;;;8.6;;
28455;SDS011;15682;56.742;38.866;2022-12-20T10:19:52;17.6;;;7.3;;
28455;SDS011;15682;56.742;38.866;2022-12-20T10:21:48;16.8;;;8.2;;
28455;SDS011;15682;56.742;38.866;2022-12-20T10:23:50;17.0;;;7.6;;
28455;SDS011;15682;56.742;38.866;2022-12-20T10:25:46;14.8;;;8.2;;
28455;SDS011;15682;56.742;38.866;2022-12-20T10:27:46;17.0;;;8.4;;
28455;SDS011;15682;56.742;38.866;2022-12-20T10:29:46;17.4;;;8.3;;
28455;SDS011;15682;56.742;38.866;2022-12-20T10:31:45;17.3;;;8.3;;
28455;SDS011;15682;56.742;38.866;2022-12-20T10:33:45;15.0;;;7.9;;
28455;SDS011;15682;56.742;38.866;2022-12-20T10:35:45;16.9;;;8.9;;
28455;SDS011;15682;56.742;38.866;2022-12-20T10:37:55;19.2;;;8.7;;
28455;SDS011;15682;56.742;38.866;2022-12-20T10:39:46;17.0;;;8.7;;
28455;SDS011;15682;56.742;38.866;2022-12-20T10:41:46;17.9;;;8.4;;
28455;SDS011;15682;56.742;38.866;2022-12-20T10:43:45;15.9;;;8.6;;
28455;SDS011;15682;56.742;38.866;2022-12-20T10:45:45;17.8;;;8.6;;
28455;SDS011;15682;56.742;38.866;2022-12-20T10:47:44;18.5;;;9.0;;
28455;SDS011;15682;56.742;38.866;2022-12-20T10:49:44;28.5;;;13.0;;
28455;SDS011;15682;56.742;38.866;2022-12-20T10:51:49;30.0;;;11.9;;
28455;SDS011;15682;56.742;38.866;2022-12-20T10:53:52;21.9;;;9.5;;
28455;SDS011;15682;56.742;38.866;2022-12-20T10:55:44;30.0;;;13.9;;
28455;SDS011;15682;56.742;38.866;2022-12-20T10:57:44;31.7;;;12.7;;
28455;SDS011;15682;56.742;38.866;2022-12-20T10:59:45;25.6;;;11.5;;
28455;SDS011;15682;56.742;38.866;2022-12-20T11:01:44;27.8;;;11.8;;
28455;SDS011;15682;56.742;38.866;2022-12-20T11:03:53;29.7;;;13.2;;
28455;SDS011;15682;56.742;38.866;2022-12-20T11:05:52;30.3;;;13.2;;
28455;SDS011;15682;56.742;38.866;2022-12-20T11:07:51;65.0;;;29.3;;
28455;SDS011;15682;56.742;38.866;2022-12-20T11:09:43;60.7;;;28.3;;
28455;SDS011;15682;56.742;38.866;2022-12-20T11:11:52;34.0;;;16.8;;
28455;SDS011;15682;56.742;38.866;2022-12-20T11:13:43;32.6;;;15.8;;
28455;SDS011;15682;56.742;38.866;2022-12-20T11:15:46;31.1;;;14.2;;
28455;SDS011;15682;56.742;38.866;2022-12-20T11:17:43;29.5;;;14.6;;
28455;SDS011;15682;56.742;38.866;2022-12-20T11:19:47;25.4;;;13.1;;
28455;SDS011;15682;56.742;38.866;2022-12-20T11:21:43;19.2;;;9.4;;
28455;SDS011;15682;56.742;38.866;2022-12-20T11:23:43;27.6;;;10.4;;
28455;SDS011;15682;56.742;38.866;2022-12-20T11:25:46;22.1;;;10.6;;
28455;SDS011;15682;56.742;38.866;2022-12-20T11:27:43;23.5;;;10.2;;
28455;SDS011;15682;56.742;38.866;2022-12-20T11:29:47;25.6;;;10.7;;
28455;SDS011;15682;56.742;38.866;2022-12-20T11:31:45;20.7;;;9.5;;
28455;SDS011;15682;56.742;38.866;2022-12-20T11:33:48;23.7;;;10.3;;
28455;SDS011;15682;56.742;38.866;2022-12-20T11:35:46;21.6;;;9.6;;
28455;SDS011;15682;56.742;38.866;2022-12-20T11:37:43;24.5;;;11.2;;
28455;SDS011;15682;56.742;38.866;2022-12-20T11:39:43;25.4;;;9.7;;
28455;SDS011;15682;56.742;38.866;2022-12-20T11:41:42;19.6;;;9.0;;
28455;SDS011;15682;56.742;38.866;2022-12-20T11:43:45;27.8;;;9.7;;
28455;SDS011;15682;56.742;38.866;2022-12-20T11:45:42;19.5;;;8.9;;
28455;SDS011;15682;56.742;38.866;2022-12-20T11:47:45;14.1;;;8.1;;
28455;SDS011;15682;56.742;38.866;2022-12-20T11:49:45;21.0;;;9.4;;
28455;SDS011;15682;56.742;38.866;2022-12-20T11:51:41;19.1;;;9.1;;
28455;SDS011;15682;56.742;38.866;2022-12-20T11:53:41;19.4;;;9.1;;
28455;SDS011;15682;56.742;38.866;2022-12-20T11:55:40;22.3;;;9.1;;
28455;SDS011;15682;56.742;38.866;2022-12-20T11:57:42;19.0;;;8.9;;
28455;SDS011;15682;56.742;38.866;2022-12-20T11:59:40;17.1;;;9.2;;
28455;SDS011;15682;56.742;38.866;2022-12-20T12:01:39;22.6;;;8.9;;
28455;SDS011;15682;56.742;38.866;2022-12-20T12:03:40;20.4;;;8.5;;